< Typhoon 199214 1992 Season Typhoon 199216 >
Typhoon 199215 (OMAR)
General InformationTrack Information on Google MapsDetailed Wind InformationList of All Images || NewsDisaster Info.ResourceGoogle EarthGE AnimationAtom FeedGeoJSON
Detalied Best Track (Time Zone = UTC)
Year Month Day Hour Lat. Long. Pressure (hPa) Wind (kt) Class Image Chart
1992 8 23 18 7.5 157.0 1004 0 2 Image Chart
1992 8 24 00 8.0 156.0 1004 0 2 Image Chart
1992 8 24 06 8.7 155.1 1004 0 2 Image Chart
1992 8 24 12 9.0 154.6 1004 0 2 Image Chart
1992 8 24 18 9.2 153.8 1004 0 2 Image Chart
1992 8 25 00 9.5 152.7 1004 0 2 Image Chart
1992 8 25 06 10.3 151.4 1000 0 2 Image Chart
1992 8 25 12 10.7 150.4 1000 0 2 Image Chart
1992 8 25 18 10.9 149.9 1000 0 2 Image Chart
1992 8 26 00 11.0 149.7 996 35 3 Image Chart
1992 8 26 06 11.1 149.1 992 40 3 Image Chart
1992 8 26 12 11.2 148.8 990 45 3 Image Chart
1992 8 26 18 11.4 148.7 985 50 4 Image Chart
1992 8 27 00 11.8 148.6 980 55 4 Image Chart
1992 8 27 06 12.2 148.3 975 60 4 Image Chart
1992 8 27 12 12.4 147.7 975 60 4 Image Chart
1992 8 27 18 12.7 147.0 975 60 4 Image Chart
1992 8 28 00 13.1 146.1 970 65 5 Image Chart
1992 8 28 06 13.5 145.1 960 70 5 Image Chart
1992 8 28 12 13.7 144.2 955 75 5 Image Chart
1992 8 28 18 14.0 143.3 950 80 5 Image Chart
1992 8 29 00 14.3 142.5 940 85 5 Image Chart
1992 8 29 06 14.4 141.7 935 90 5 Image Chart
1992 8 29 12 14.2 141.1 930 95 5 Image Chart
1992 8 29 18 14.7 140.6 920 100 5 Image Chart
1992 8 30 00 15.0 140.0 920 100 5 Image Chart
1992 8 30 06 15.3 139.6 920 100 5 Image Chart
1992 8 30 12 15.8 139.2 920 100 5 Image Chart
1992 8 30 18 16.1 138.6 920 100 5 Image Chart
1992 8 31 00 16.6 137.7 925 95 5 Image Chart
1992 8 31 06 16.9 136.9 925 95 5 Image Chart
1992 8 31 12 17.2 136.0 925 95 5 Image Chart
1992 8 31 18 17.8 135.1 935 90 5 Image Chart
1992 9 1 00 18.5 134.1 935 90 5 Image Chart
1992 9 1 06 19.1 133.1 935 90 5 Image Chart
1992 9 1 12 20.0 131.9 935 90 5 Image Chart
1992 9 1 18 20.7 130.6 945 85 5 Image Chart
1992 9 2 00 21.1 129.4 945 85 5 Image Chart
1992 9 2 06 21.4 128.6 950 80 5 Image Chart
1992 9 2 12 21.6 128.2 955 75 5 Image Chart
1992 9 2 15 21.7 128.0 955 75 5 Image Chart
1992 9 2 18 21.8 127.7 955 75 5 Image Chart
1992 9 2 21 21.8 127.3 955 75 5 Image Chart
1992 9 3 00 21.9 126.8 955 75 5 Image Chart
1992 9 3 03 22.1 126.2 955 75 5 Image Chart
1992 9 3 06 22.4 125.6 960 70 5 Image Chart
1992 9 3 09 22.4 125.3 965 70 5 Image Chart
1992 9 3 12 22.4 124.9 970 65 5 Image Chart
1992 9 3 15 22.5 124.3 975 60 4 Image Chart
1992 9 3 18 22.8 123.8 975 60 4 Image Chart
1992 9 3 21 22.9 123.4 975 60 4 Image Chart
1992 9 4 00 23.0 123.1 975 60 4 Image Chart
1992 9 4 03 23.1 122.8 975 60 4 Image Chart
1992 9 4 06 23.2 122.6 975 60 4 Image Chart
1992 9 4 09 23.4 122.2 975 60 4 Image Chart
1992 9 4 12 23.5 121.6 975 60 4 Image Chart
1992 9 4 15 23.5 121.1 980 55 4 Image Chart
1992 9 4 18 23.5 120.3 980 55 4 Image Chart
1992 9 4 21 23.6 119.8 985 50 4 Image Chart
1992 9 5 00 24.0 119.0 985 50 4 Image Chart
1992 9 5 06 24.8 117.8 985 45 3 Image Chart
1992 9 5 12 24.6 116.4 992 0 2 Image Chart
1992 9 5 18 24.6 115.5 994 0 2 Image Chart
1992 9 6 00 24.9 114.3 996 0 2 Image Chart
1992 9 6 06 24.8 113.8 996 0 2 Image Chart
1992 9 6 12 23.6 112.7 998 0 2 Image Chart
1992 9 6 18 23.4 112.4 998 0 2 Image Chart
1992 9 7 00 23.0 112.2 1000 0 2 Image Chart
1992 9 7 06 23.0 111.9 1000 0 2 Image Chart
1992 9 7 12 22.7 111.0 1000 0 2 Image Chart
1992 9 7 18 22.1 109.9 1000 0 2 Image Chart
1992 9 8 00 21.4 108.0 1002 0 2 Image Chart
1992 9 8 06 21.1 107.5 1002 0 2 Image Chart
1992 9 8 12 20.9 107.2 1002 0 2 Image Chart
1992 9 8 18 20.8 106.5 1004 0 2 Image Chart
1992 9 9 00 20.6 106.0 1006 0 2 Image Chart
Japan Meteorological Agency Best Track Data | Correction Date : 1992-12-25
< Typhoon 199214 1992 Season Typhoon 199216 >

Help